sensor_id;sensor_type;location;lat;lon;timestamp;temperature;humidity
9975;DHT22;5028;50.974;4.968;2023-01-05T00:02:13;10.90;99.90
9975;DHT22;5028;50.974;4.968;2023-01-05T00:04:50;10.90;99.90
9975;DHT22;5028;50.974;4.968;2023-01-05T00:07:18;10.90;99.90
9975;DHT22;5028;50.974;4.968;2023-01-05T00:09:54;10.90;99.90
9975;DHT22;5028;50.974;4.968;2023-01-05T00:12:24;10.90;99.90
9975;DHT22;5028;50.974;4.968;2023-01-05T00:15:16;10.90;99.90
9975;DHT22;5028;50.974;4.968;2023-01-05T00:18:01;10.90;99.90
9975;DHT22;5028;50.974;4.968;2023-01-05T00:21:01;10.90;99.90
9975;DHT22;5028;50.974;4.968;2023-01-05T00:23:44;10.80;99.90
9975;DHT22;5028;50.974;4.968;2023-01-05T00:26:19;10.80;99.90
9975;DHT22;5028;50.974;4.968;2023-01-05T00:28:49;10.80;99.90
9975;DHT22;5028;50.974;4.968;2023-01-05T00:31:24;10.80;99.90
9975;DHT22;5028;50.974;4.968;2023-01-05T00:33:53;10.80;99.90
9975;DHT22;5028;50.974;4.968;2023-01-05T00:36:28;10.80;99.90
9975;DHT22;5028;50.974;4.968;2023-01-05T00:38:56;10.80;99.90
9975;DHT22;5028;50.974;4.968;2023-01-05T00:41:31;10.80;99.90
9975;DHT22;5028;50.974;4.968;2023-01-05T00:44:01;10.80;99.90
9975;DHT22;5028;50.974;4.968;2023-01-05T00:46:36;10.80;99.90
9975;DHT22;5028;50.974;4.968;2023-01-05T00:49:05;10.80;99.90
9975;DHT22;5028;50.974;4.968;2023-01-05T00:51:40;10.80;99.90
9975;DHT22;5028;50.974;4.968;2023-01-05T00:54:08;10.80;99.90
9975;DHT22;5028;50.974;4.968;2023-01-05T00:56:43;10.80;99.90
9975;DHT22;5028;50.974;4.968;2023-01-05T00:59:16;10.80;99.90
9975;DHT22;5028;50.974;4.968;2023-01-05T01:01:52;10.80;99.90
9975;DHT22;5028;50.974;4.968;2023-01-05T01:04:22;10.80;99.90
9975;DHT22;5028;50.974;4.968;2023-01-05T01:06:57;10.80;99.90
9975;DHT22;5028;50.974;4.968;2023-01-05T01:09:26;10.70;99.90
9975;DHT22;5028;50.974;4.968;2023-01-05T01:12:01;10.70;99.90
9975;DHT22;5028;50.974;4.968;2023-01-05T01:14:31;10.70;99.90
9975;DHT22;5028;50.974;4.968;2023-01-05T01:17:13;10.70;99.90
9975;DHT22;5028;50.974;4.968;2023-01-05T01:19:54;10.70;99.90
9975;DHT22;5028;50.974;4.968;2023-01-05T01:22:29;10.70;99.90
9975;DHT22;5028;50.974;4.968;2023-01-05T01:24:58;10.60;99.90
9975;DHT22;5028;50.974;4.968;2023-01-05T01:27:33;10.60;99.90
9975;DHT22;5028;50.974;4.968;2023-01-05T01:30:04;10.70;99.90
9975;DHT22;5028;50.974;4.968;2023-01-05T01:32:39;10.60;99.90
9975;DHT22;5028;50.974;4.968;2023-01-05T01:35:08;10.70;99.90
9975;DHT22;5028;50.974;4.968;2023-01-05T01:37:43;10.70;99.90
9975;DHT22;5028;50.974;4.968;2023-01-05T01:40:11;10.70;99.90
9975;DHT22;5028;50.974;4.968;2023-01-05T01:42:46;10.60;99.90
9975;DHT22;5028;50.974;4.968;2023-01-05T01:45:19;10.60;99.90
9975;DHT22;5028;50.974;4.968;2023-01-05T01:47:56;10.60;99.90
9975;DHT22;5028;50.974;4.968;2023-01-05T01:50:30;10.60;99.90
9975;DHT22;5028;50.974;4.968;2023-01-05T01:53:08;10.60;99.90
9975;DHT22;5028;50.974;4.968;2023-01-05T01:55:39;10.50;99.90
9975;DHT22;5028;50.974;4.968;2023-01-05T01:58:17;10.50;99.90
9975;DHT22;5028;50.974;4.968;2023-01-05T02:00:48;10.60;99.90
9975;DHT22;5028;50.974;4.968;2023-01-05T02:03:23;10.60;99.90
9975;DHT22;5028;50.974;4.968;2023-01-05T02:05:53;10.60;99.90
9975;DHT22;5028;50.974;4.968;2023-01-05T02:08:28;10.60;99.90
9975;DHT22;5028;50.974;4.968;2023-01-05T02:11:16;10.60;99.90
9975;DHT22;5028;50.974;4.968;2023-01-05T02:14:17;10.70;99.90
9975;DHT22;5028;50.974;4.968;2023-01-05T02:16:59;10.70;99.90
9975;DHT22;5028;50.974;4.968;2023-01-05T02:26:46;10.60;99.90
9975;DHT22;5028;50.974;4.968;2023-01-05T02:29:52;10.60;99.90
9975;DHT22;5028;50.974;4.968;2023-01-05T02:32:41;10.60;99.90
9975;DHT22;5028;50.974;4.968;2023-01-05T02:35:22;10.60;99.90
9975;DHT22;5028;50.974;4.968;2023-01-05T02:38:05;10.60;99.90
9975;DHT22;5028;50.974;4.968;2023-01-05T02:40:40;10.60;99.90
9975;DHT22;5028;50.974;4.968;2023-01-05T02:43:17;10.60;99.90
9975;DHT22;5028;50.974;4.968;2023-01-05T02:45:47;10.50;99.90
9975;DHT22;5028;50.974;4.968;2023-01-05T02:48:25;10.60;99.90
9975;DHT22;5028;50.974;4.968;2023-01-05T02:50:56;10.70;99.90
9975;DHT22;5028;50.974;4.968;2023-01-05T02:53:37;10.70;99.90
9975;DHT22;5028;50.974;4.968;2023-01-05T02:56:09;10.70;99.90
9975;DHT22;5028;50.974;4.968;2023-01-05T02:58:49;10.70;99.90
9975;DHT22;5028;50.974;4.968;2023-01-05T03:01:21;10.70;99.90
9975;DHT22;5028;50.974;4.968;2023-01-05T03:04:02;10.70;99.90
9975;DHT22;5028;50.974;4.968;2023-01-05T03:06:36;10.70;99.90
9975;DHT22;5028;50.974;4.968;2023-01-05T03:09:19;10.70;99.90
9975;DHT22;5028;50.974;4.968;2023-01-05T03:11:58;10.70;99.90
9975;DHT22;5028;50.974;4.968;2023-01-05T03:14:55;10.70;99.90
9975;DHT22;5028;50.974;4.968;2023-01-05T03:17:28;10.70;99.90
9975;DHT22;5028;50.974;4.968;2023-01-05T03:20:23;10.70;99.90
9975;DHT22;5028;50.974;4.968;2023-01-05T03:22:53;10.70;99.90
9975;DHT22;5028;50.974;4.968;2023-01-05T03:25:47;10.70;99.90
9975;DHT22;5028;50.974;4.968;2023-01-05T03:28:38;10.80;99.90
9975;DHT22;5028;50.974;4.968;2023-01-05T03:31:34;10.70;99.90
9975;DHT22;5028;50.974;4.968;2023-01-05T03:34:26;10.80;99.90
9975;DHT22;5028;50.974;4.968;2023-01-05T03:37:24;10.80;99.90
9975;DHT22;5028;50.974;4.968;2023-01-05T03:39:54;10.80;99.90
9975;DHT22;5028;50.974;4.968;2023-01-05T03:42:29;10.70;99.90
9975;DHT22;5028;50.974;4.968;2023-01-05T03:44:59;10.70;99.90
9975;DHT22;5028;50.974;4.968;2023-01-05T03:47:35;10.70;99.90
9975;DHT22;5028;50.974;4.968;2023-01-05T03:50:04;10.70;99.90
9975;DHT22;5028;50.974;4.968;2023-01-05T03:52:42;10.80;99.90
9975;DHT22;5028;50.974;4.968;2023-01-05T03:55:10;10.80;99.90
9975;DHT22;5028;50.974;4.968;2023-01-05T03:57:45;10.80;99.90
9975;DHT22;5028;50.974;4.968;2023-01-05T04:00:15;10.80;99.90
9975;DHT22;5028;50.974;4.968;2023-01-05T04:02:50;10.80;99.90
9975;DHT22;5028;50.974;4.968;2023-01-05T04:05:19;10.80;99.90
9975;DHT22;5028;50.974;4.968;2023-01-05T04:07:55;10.70;99.90
9975;DHT22;5028;50.974;4.968;2023-01-05T04:10:24;10.80;99.90
9975;DHT22;5028;50.974;4.968;2023-01-05T04:12:59;10.80;99.90
9975;DHT22;5028;50.974;4.968;2023-01-05T04:15:28;10.80;99.90
9975;DHT22;5028;50.974;4.968;2023-01-05T04:18:03;10.80;99.90
9975;DHT22;5028;50.974;4.968;2023-01-05T04:20:39;10.70;99.90
9975;DHT22;5028;50.974;4.968;2023-01-05T04:23:15;10.70;99.90
9975;DHT22;5028;50.974;4.968;2023-01-05T04:25:45;10.80;99.90
9975;DHT22;5028;50.974;4.968;2023-01-05T04:28:20;10.80;99.90
9975;DHT22;5028;50.974;4.968;2023-01-05T04:30:49;10.70;99.90
9975;DHT22;5028;50.974;4.968;2023-01-05T04:33:25;10.80;99.90
9975;DHT22;5028;50.974;4.968;2023-01-05T04:35:54;10.80;99.90
9975;DHT22;5028;50.974;4.968;2023-01-05T04:38:30;10.80;99.90
9975;DHT22;5028;50.974;4.968;2023-01-05T04:40:58;10.80;99.90
9975;DHT22;5028;50.974;4.968;2023-01-05T04:43:33;10.80;99.90
9975;DHT22;5028;50.974;4.968;2023-01-05T04:46:02;10.80;99.90
9975;DHT22;5028;50.974;4.968;2023-01-05T04:48:37;10.70;99.90
9975;DHT22;5028;50.974;4.968;2023-01-05T04:51:06;10.70;99.90
9975;DHT22;5028;50.974;4.968;2023-01-05T04:53:42;10.70;99.90
9975;DHT22;5028;50.974;4.968;2023-01-05T04:56:11;10.70;99.90
9975;DHT22;5028;50.974;4.968;2023-01-05T04:58:46;10.70;99.90
9975;DHT22;5028;50.974;4.968;2023-01-05T05:01:15;10.70;99.90
9975;DHT22;5028;50.974;4.968;2023-01-05T05:03:50;10.70;99.90
9975;DHT22;5028;50.974;4.968;2023-01-05T05:06:19;10.70;99.90
9975;DHT22;5028;50.974;4.968;2023-01-05T05:08:56;10.70;99.90
9975;DHT22;5028;50.974;4.968;2023-01-05T05:11:24;10.70;99.90
9975;DHT22;5028;50.974;4.968;2023-01-05T05:13:59;10.70;99.90
9975;DHT22;5028;50.974;4.968;2023-01-05T05:16:28;10.70;99.90
9975;DHT22;5028;50.974;4.968;2023-01-05T05:19:10;10.60;99.90
9975;DHT22;5028;50.974;4.968;2023-01-05T05:21:38;10.60;99.90
9975;DHT22;5028;50.974;4.968;2023-01-05T05:24:15;10.60;99.90
9975;DHT22;5028;50.974;4.968;2023-01-05T05:26:43;10.60;99.90
9975;DHT22;5028;50.974;4.968;2023-01-05T05:29:18;10.60;99.90
9975;DHT22;5028;50.974;4.968;2023-01-05T05:31:47;10.60;99.90
9975;DHT22;5028;50.974;4.968;2023-01-05T05:34:22;10.60;99.90
9975;DHT22;5028;50.974;4.968;2023-01-05T05:36:51;10.60;99.90
9975;DHT22;5028;50.974;4.968;2023-01-05T05:39:27;10.60;99.90
9975;DHT22;5028;50.974;4.968;2023-01-05T05:41:55;10.60;99.90
9975;DHT22;5028;50.974;4.968;2023-01-05T05:44:30;10.60;99.90
9975;DHT22;5028;50.974;4.968;2023-01-05T05:46:59;10.70;99.90
9975;DHT22;5028;50.974;4.968;2023-01-05T05:49:34;10.60;99.90
9975;DHT22;5028;50.974;4.968;2023-01-05T05:52:03;10.70;99.90
9975;DHT22;5028;50.974;4.968;2023-01-05T05:54:39;10.60;99.90
9975;DHT22;5028;50.974;4.968;2023-01-05T05:57:07;10.60;99.90
9975;DHT22;5028;50.974;4.968;2023-01-05T05:59:42;10.60;99.90
9975;DHT22;5028;50.974;4.968;2023-01-05T06:02:11;10.60;99.90
9975;DHT22;5028;50.974;4.968;2023-01-05T06:04:45;10.60;99.90
9975;DHT22;5028;50.974;4.968;2023-01-05T06:07:14;10.60;99.90
9975;DHT22;5028;50.974;4.968;2023-01-05T06:09:50;10.60;99.90
9975;DHT22;5028;50.974;4.968;2023-01-05T06:12:18;10.70;99.90
9975;DHT22;5028;50.974;4.968;2023-01-05T06:14:53;10.70;99.90
9975;DHT22;5028;50.974;4.968;2023-01-05T06:17:22;10.70;99.90
9975;DHT22;5028;50.974;4.968;2023-01-05T06:19:57;10.70;99.90
9975;DHT22;5028;50.974;4.968;2023-01-05T06:22:33;10.70;99.90
9975;DHT22;5028;50.974;4.968;2023-01-05T06:25:10;10.70;99.90
9975;DHT22;5028;50.974;4.968;2023-01-05T06:27:38;10.70;99.90
9975;DHT22;5028;50.974;4.968;2023-01-05T06:30:13;10.70;99.90
9975;DHT22;5028;50.974;4.968;2023-01-05T06:32:42;10.70;99.90
9975;DHT22;5028;50.974;4.968;2023-01-05T06:35:17;10.70;99.90
9975;DHT22;5028;50.974;4.968;2023-01-05T06:37:46;10.70;99.90
9975;DHT22;5028;50.974;4.968;2023-01-05T06:40:23;10.70;99.90
9975;DHT22;5028;50.974;4.968;2023-01-05T06:42:51;10.70;99.90
9975;DHT22;5028;50.974;4.968;2023-01-05T06:45:26;10.70;99.90
9975;DHT22;5028;50.974;4.968;2023-01-05T06:47:55;10.60;99.90
9975;DHT22;5028;50.974;4.968;2023-01-05T06:50:31;10.60;99.90
9975;DHT22;5028;50.974;4.968;2023-01-05T06:52:59;10.60;99.90
9975;DHT22;5028;50.974;4.968;2023-01-05T06:55:36;10.60;99.90
9975;DHT22;5028;50.974;4.968;2023-01-05T06:58:04;10.60;99.90
9975;DHT22;5028;50.974;4.968;2023-01-05T07:00:39;10.60;99.90
9975;DHT22;5028;50.974;4.968;2023-01-05T07:03:10;10.60;99.90
9975;DHT22;5028;50.974;4.968;2023-01-05T07:05:45;10.60;99.90
9975;DHT22;5028;50.974;4.968;2023-01-05T07:08:14;10.60;99.90
9975;DHT22;5028;50.974;4.968;2023-01-05T07:10:51;10.60;99.90
9975;DHT22;5028;50.974;4.968;2023-01-05T07:13:19;10.60;99.90
9975;DHT22;5028;50.974;4.968;2023-01-05T07:15:54;10.60;99.90
9975;DHT22;5028;50.974;4.968;2023-01-05T07:18:29;10.60;99.90
9975;DHT22;5028;50.974;4.968;2023-01-05T07:21:11;10.60;99.90
9975;DHT22;5028;50.974;4.968;2023-01-05T07:23:39;10.60;99.90
9975;DHT22;5028;50.974;4.968;2023-01-05T07:26:16;10.60;99.90
9975;DHT22;5028;50.974;4.968;2023-01-05T07:28:44;10.60;99.90
9975;DHT22;5028;50.974;4.968;2023-01-05T07:31:19;10.60;99.90
9975;DHT22;5028;50.974;4.968;2023-01-05T07:33:47;10.60;99.90
9975;DHT22;5028;50.974;4.968;2023-01-05T07:36:22;10.60;99.90
9975;DHT22;5028;50.974;4.968;2023-01-05T07:38:51;10.60;99.90
9975;DHT22;5028;50.974;4.968;2023-01-05T07:41:28;10.60;99.90
9975;DHT22;5028;50.974;4.968;2023-01-05T07:43:56;10.60;99.90
9975;DHT22;5028;50.974;4.968;2023-01-05T07:46:31;10.60;99.90
9975;DHT22;5028;50.974;4.968;2023-01-05T07:49:00;10.60;99.90
9975;DHT22;5028;50.974;4.968;2023-01-05T07:51:36;10.50;99.90
9975;DHT22;5028;50.974;4.968;2023-01-05T07:54:04;10.50;99.90
9975;DHT22;5028;50.974;4.968;2023-01-05T07:56:41;10.60;99.90
9975;DHT22;5028;50.974;4.968;2023-01-05T07:59:16;10.50;99.90
9975;DHT22;5028;50.974;4.968;2023-01-05T08:01:45;10.60;99.90
9975;DHT22;5028;50.974;4.968;2023-01-05T08:04:21;10.50;99.90
9975;DHT22;5028;50.974;4.968;2023-01-05T08:06:49;10.60;99.90
9975;DHT22;5028;50.974;4.968;2023-01-05T08:09:24;10.50;99.90
9975;DHT22;5028;50.974;4.968;2023-01-05T08:12:12;10.50;99.90
9975;DHT22;5028;50.974;4.968;2023-01-05T08:14:47;10.50;99.90
9975;DHT22;5028;50.974;4.968;2023-01-05T08:17:16;10.50;99.90
9975;DHT22;5028;50.974;4.968;2023-01-05T08:19:57;10.50;99.90
9975;DHT22;5028;50.974;4.968;2023-01-05T08:22:25;10.50;99.90
9975;DHT22;5028;50.974;4.968;2023-01-05T08:25:00;10.50;99.90
9975;DHT22;5028;50.974;4.968;2023-01-05T08:27:31;10.50;99.90
9975;DHT22;5028;50.974;4.968;2023-01-05T08:30:06;10.50;99.90
9975;DHT22;5028;50.974;4.968;2023-01-05T08:32:35;10.60;99.90
9975;DHT22;5028;50.974;4.968;2023-01-05T08:35:09;10.50;99.90
9975;DHT22;5028;50.974;4.968;2023-01-05T08:37:38;10.50;99.90
9975;DHT22;5028;50.974;4.968;2023-01-05T08:40:12;10.50;99.90
9975;DHT22;5028;50.974;4.968;2023-01-05T08:42:43;10.50;99.90
9975;DHT22;5028;50.974;4.968;2023-01-05T08:45:20;10.50;99.90
9975;DHT22;5028;50.974;4.968;2023-01-05T08:47:49;10.50;99.90
9975;DHT22;5028;50.974;4.968;2023-01-05T08:50:24;10.60;99.90
9975;DHT22;5028;50.974;4.968;2023-01-05T08:52:53;10.50;99.90
9975;DHT22;5028;50.974;4.968;2023-01-05T08:55:28;10.60;99.90
9975;DHT22;5028;50.974;4.968;2023-01-05T08:57:58;10.60;99.90
9975;DHT22;5028;50.974;4.968;2023-01-05T09:00:34;10.60;99.90
9975;DHT22;5028;50.974;4.968;2023-01-05T09:03:03;10.60;99.90
9975;DHT22;5028;50.974;4.968;2023-01-05T09:05:38;10.60;99.90
9975;DHT22;5028;50.974;4.968;2023-01-05T09:08:06;10.60;99.90
9975;DHT22;5028;50.974;4.968;2023-01-05T09:10:41;10.60;99.90
9975;DHT22;5028;50.974;4.968;2023-01-05T09:13:11;10.60;99.90
9975;DHT22;5028;50.974;4.968;2023-01-05T09:15:46;10.60;99.90
9975;DHT22;5028;50.974;4.968;2023-01-05T09:18:15;10.60;99.90
9975;DHT22;5028;50.974;4.968;2023-01-05T09:21:03;10.60;99.90
9975;DHT22;5028;50.974;4.968;2023-01-05T09:23:32;10.70;99.90
9975;DHT22;5028;50.974;4.968;2023-01-05T09:26:09;10.70;99.90
9975;DHT22;5028;50.974;4.968;2023-01-05T09:28:40;10.70;99.90
9975;DHT22;5028;50.974;4.968;2023-01-05T09:31:16;10.70;99.90
9975;DHT22;5028;50.974;4.968;2023-01-05T09:33:46;10.80;99.90
9975;DHT22;5028;50.974;4.968;2023-01-05T09:36:22;10.80;99.90
9975;DHT22;5028;50.974;4.968;2023-01-05T09:38:53;10.80;99.90
9975;DHT22;5028;50.974;4.968;2023-01-05T09:41:33;10.80;99.90
9975;DHT22;5028;50.974;4.968;2023-01-05T09:44:05;10.80;99.90
9975;DHT22;5028;50.974;4.968;2023-01-05T09:46:46;10.80;99.90
9975;DHT22;5028;50.974;4.968;2023-01-05T09:49:20;10.80;99.90
9975;DHT22;5028;50.974;4.968;2023-01-05T09:51:59;10.80;99.90
9975;DHT22;5028;50.974;4.968;2023-01-05T09:54:31;10.80;99.90
9975;DHT22;5028;50.974;4.968;2023-01-05T09:57:14;10.80;99.90
9975;DHT22;5028;50.974;4.968;2023-01-05T09:59:47;10.70;99.90
9975;DHT22;5028;50.974;4.968;2023-01-05T10:02:28;10.80;99.90
9975;DHT22;5028;50.974;4.968;2023-01-05T10:05:00;10.80;99.90
9975;DHT22;5028;50.974;4.968;2023-01-05T10:07:41;10.70;99.90
9975;DHT22;5028;50.974;4.968;2023-01-05T10:10:20;10.70;99.90
9975;DHT22;5028;50.974;4.968;2023-01-05T10:12:59;10.70;99.90
9975;DHT22;5028;50.974;4.968;2023-01-05T10:15:37;10.70;99.90
9975;DHT22;5028;50.974;4.968;2023-01-05T10:18:16;10.70;99.90
9975;DHT22;5028;50.974;4.968;2023-01-05T10:21:11;10.70;99.90
9975;DHT22;5028;50.974;4.968;2023-01-05T10:24:08;10.70;99.90
9975;DHT22;5028;50.974;4.968;2023-01-05T10:26:45;10.70;99.90
9975;DHT22;5028;50.974;4.968;2023-01-05T10:29:45;10.80;99.90
9975;DHT22;5028;50.974;4.968;2023-01-05T10:32:23;10.90;99.90
9975;DHT22;5028;50.974;4.968;2023-01-05T10:35:27;10.90;99.90
9975;DHT22;5028;50.974;4.968;2023-01-05T10:38:30;10.90;99.90
9975;DHT22;5028;50.974;4.968;2023-01-05T10:41:17;10.90;99.90
9975;DHT22;5028;50.974;4.968;2023-01-05T10:44:06;10.80;99.90
9975;DHT22;5028;50.974;4.968;2023-01-05T10:46:47;10.90;99.90
9975;DHT22;5028;50.974;4.968;2023-01-05T10:49:24;10.80;99.90
9975;DHT22;5028;50.974;4.968;2023-01-05T10:52:01;10.80;99.90
9975;DHT22;5028;50.974;4.968;2023-01-05T10:54:36;10.90;99.90
9975;DHT22;5028;50.974;4.968;2023-01-05T10:57:33;10.90;99.90
9975;DHT22;5028;50.974;4.968;2023-01-05T11:00:08;10.90;99.90
9975;DHT22;5028;50.974;4.968;2023-01-05T11:02:48;11.00;99.90
9975;DHT22;5028;50.974;4.968;2023-01-05T11:05:40;11.00;99.90
9975;DHT22;5028;50.974;4.968;2023-01-05T11:08:17;11.00;99.90
9975;DHT22;5028;50.974;4.968;2023-01-05T11:10:50;11.00;99.90
9975;DHT22;5028;50.974;4.968;2023-01-05T11:13:32;11.00;99.90
9975;DHT22;5028;50.974;4.968;2023-01-05T11:16:08;11.10;99.90
9975;DHT22;5028;50.974;4.968;2023-01-05T11:18:48;11.10;99.90
9975;DHT22;5028;50.974;4.968;2023-01-05T11:21:42;11.10;99.90
9975;DHT22;5028;50.974;4.968;2023-01-05T11:24:29;11.20;99.90
9975;DHT22;5028;50.974;4.968;2023-01-05T11:26:59;11.20;99.90
9975;DHT22;5028;50.974;4.968;2023-01-05T11:29:36;11.20;99.90
9975;DHT22;5028;50.974;4.968;2023-01-05T11:32:09;11.30;99.90
9975;DHT22;5028;50.974;4.968;2023-01-05T11:34:47;11.30;99.90
9975;DHT22;5028;50.974;4.968;2023-01-05T11:37:24;11.40;99.90
9975;DHT22;5028;50.974;4.968;2023-01-05T11:40:03;11.40;99.90
9975;DHT22;5028;50.974;4.968;2023-01-05T11:42:33;11.40;99.90
9975;DHT22;5028;50.974;4.968;2023-01-05T11:45:20;11.50;99.90
9975;DHT22;5028;50.974;4.968;2023-01-05T11:47:51;11.60;99.90
9975;DHT22;5028;50.974;4.968;2023-01-05T11:50:29;11.60;99.90
9975;DHT22;5028;50.974;4.968;2023-01-05T11:53:01;11.60;99.90
9975;DHT22;5028;50.974;4.968;2023-01-05T11:55:38;11.70;99.90
9975;DHT22;5028;50.974;4.968;2023-01-05T11:58:23;11.70;99.90
9975;DHT22;5028;50.974;4.968;2023-01-05T12:01:43;11.70;99.90
9975;DHT22;5028;50.974;4.968;2023-01-05T12:04:32;11.70;99.90
9975;DHT22;5028;50.974;4.968;2023-01-05T12:07:14;11.70;99.90
9975;DHT22;5028;50.974;4.968;2023-01-05T12:09:57;11.80;99.90
9975;DHT22;5028;50.974;4.968;2023-01-05T12:12:38;11.80;99.90
9975;DHT22;5028;50.974;4.968;2023-01-05T12:18:28;11.80;99.90
9975;DHT22;5028;50.974;4.968;2023-01-05T12:21:11;11.80;99.90
9975;DHT22;5028;50.974;4.968;2023-01-05T12:24:22;11.80;99.90
9975;DHT22;5028;50.974;4.968;2023-01-05T12:27:12;11.80;99.90
9975;DHT22;5028;50.974;4.968;2023-01-05T12:29:59;11.90;99.90
9975;DHT22;5028;50.974;4.968;2023-01-05T12:33:20;11.90;99.90
9975;DHT22;5028;50.974;4.968;2023-01-05T12:36:23;11.80;99.90
9975;DHT22;5028;50.974;4.968;2023-01-05T12:39:18;11.80;99.90
9975;DHT22;5028;50.974;4.968;2023-01-05T12:42:03;11.80;99.90
9975;DHT22;5028;50.974;4.968;2023-01-05T12:44:53;11.80;99.90
9975;DHT22;5028;50.974;4.968;2023-01-05T12:47:42;11.80;99.90
9975;DHT22;5028;50.974;4.968;2023-01-05T12:50:34;11.80;99.90
9975;DHT22;5028;50.974;4.968;2023-01-05T12:53:12;11.80;99.90
9975;DHT22;5028;50.974;4.968;2023-01-05T12:55:50;11.80;99.90
9975;DHT22;5028;50.974;4.968;2023-01-05T12:58:26;11.90;99.90
9975;DHT22;5028;50.974;4.968;2023-01-05T13:01:05;11.80;99.90
9975;DHT22;5028;50.974;4.968;2023-01-05T13:03:40;11.80;99.90
9975;DHT22;5028;50.974;4.968;2023-01-05T13:06:21;11.80;99.90
9975;DHT22;5028;50.974;4.968;2023-01-05T13:08:53;11.80;99.90
9975;DHT22;5028;50.974;4.968;2023-01-05T13:11:33;11.70;99.90
9975;DHT22;5028;50.974;4.968;2023-01-05T13:14:09;11.70;99.90
9975;DHT22;5028;50.974;4.968;2023-01-05T13:16:51;11.70;99.90
9975;DHT22;5028;50.974;4.968;2023-01-05T13:19:34;11.60;99.90
9975;DHT22;5028;50.974;4.968;2023-01-05T13:22:21;11.70;99.90
9975;DHT22;5028;50.974;4.968;2023-01-05T13:24:53;11.70;99.90
9975;DHT22;5028;50.974;4.968;2023-01-05T13:27:31;11.70;99.90
9975;DHT22;5028;50.974;4.968;2023-01-05T13:30:02;11.70;99.90
9975;DHT22;5028;50.974;4.968;2023-01-05T13:32:51;11.70;99.90
9975;DHT22;5028;50.974;4.968;2023-01-05T13:35:37;11.60;99.90
9975;DHT22;5028;50.974;4.968;2023-01-05T13:38:48;11.60;99.90
9975;DHT22;5028;50.974;4.968;2023-01-05T13:41:37;11.50;99.90
9975;DHT22;5028;50.974;4.968;2023-01-05T13:44:38;11.50;99.90
9975;DHT22;5028;50.974;4.968;2023-01-05T13:47:27;11.50;99.90
9975;DHT22;5028;50.974;4.968;2023-01-05T13:50:32;11.50;99.90
9975;DHT22;5028;50.974;4.968;2023-01-05T13:53:10;11.40;99.90
9975;DHT22;5028;50.974;4.968;2023-01-05T13:55:50;11.40;99.90
9975;DHT22;5028;50.974;4.968;2023-01-05T13:58:39;11.30;99.90
9975;DHT22;5028;50.974;4.968;2023-01-05T14:01:16;11.20;99.90
9975;DHT22;5028;50.974;4.968;2023-01-05T14:03:51;11.20;99.90
9975;DHT22;5028;50.974;4.968;2023-01-05T14:06:28;11.10;99.90
9975;DHT22;5028;50.974;4.968;2023-01-05T14:09:00;11.10;99.90
9975;DHT22;5028;50.974;4.968;2023-01-05T14:11:36;11.00;99.90
9975;DHT22;5028;50.974;4.968;2023-01-05T14:14:08;11.00;99.90
9975;DHT22;5028;50.974;4.968;2023-01-05T14:16:58;11.00;99.90
9975;DHT22;5028;50.974;4.968;2023-01-05T14:19:51;11.10;99.90
9975;DHT22;5028;50.974;4.968;2023-01-05T14:22:36;11.10;99.90
9975;DHT22;5028;50.974;4.968;2023-01-05T14:25:44;11.10;99.90
9975;DHT22;5028;50.974;4.968;2023-01-05T14:31:51;11.10;99.90
9975;DHT22;5028;50.974;4.968;2023-01-05T14:34:26;11.10;99.90
9975;DHT22;5028;50.974;4.968;2023-01-05T14:37:03;11.10;99.90
9975;DHT22;5028;50.974;4.968;2023-01-05T14:39:42;11.10;99.90
9975;DHT22;5028;50.974;4.968;2023-01-05T14:42:24;11.10;99.90
9975;DHT22;5028;50.974;4.968;2023-01-05T14:45:02;11.10;99.90
9975;DHT22;5028;50.974;4.968;2023-01-05T14:47:36;11.10;99.90
9975;DHT22;5028;50.974;4.968;2023-01-05T14:50:26;11.20;99.90
9975;DHT22;5028;50.974;4.968;2023-01-05T14:53:00;11.10;99.90
9975;DHT22;5028;50.974;4.968;2023-01-05T14:55:38;11.10;99.90
9975;DHT22;5028;50.974;4.968;2023-01-05T14:58:12;11.10;99.90
9975;DHT22;5028;50.974;4.968;2023-01-05T15:00:53;11.10;99.90
9975;DHT22;5028;50.974;4.968;2023-01-05T15:03:32;11.10;99.90
9975;DHT22;5028;50.974;4.968;2023-01-05T15:06:14;11.10;99.90
9975;DHT22;5028;50.974;4.968;2023-01-05T15:09:20;11.10;99.90
9975;DHT22;5028;50.974;4.968;2023-01-05T15:12:13;11.10;99.90
9975;DHT22;5028;50.974;4.968;2023-01-05T15:24:49;11.10;99.90
9975;DHT22;5028;50.974;4.968;2023-01-05T15:27:50;11.00;99.90
9975;DHT22;5028;50.974;4.968;2023-01-05T15:30:38;11.00;99.90
9975;DHT22;5028;50.974;4.968;2023-01-05T15:33:18;11.00;99.90
9975;DHT22;5028;50.974;4.968;2023-01-05T15:35:54;11.00;99.90
9975;DHT22;5028;50.974;4.968;2023-01-05T15:38:43;11.00;99.90
9975;DHT22;5028;50.974;4.968;2023-01-05T15:41:17;11.10;99.90
9975;DHT22;5028;50.974;4.968;2023-01-05T15:43:53;11.10;99.90
9975;DHT22;5028;50.974;4.968;2023-01-05T15:46:27;11.10;99.90
9975;DHT22;5028;50.974;4.968;2023-01-05T15:49:05;11.10;99.90
9975;DHT22;5028;50.974;4.968;2023-01-05T15:51:33;11.10;99.90
9975;DHT22;5028;50.974;4.968;2023-01-05T15:54:03;11.20;99.90
9975;DHT22;5028;50.974;4.968;2023-01-05T15:56:40;11.10;99.90
9975;DHT22;5028;50.974;4.968;2023-01-05T15:59:20;11.20;99.90
9975;DHT22;5028;50.974;4.968;2023-01-05T16:01:55;11.20;99.90
9975;DHT22;5028;50.974;4.968;2023-01-05T16:04:24;11.10;99.90
9975;DHT22;5028;50.974;4.968;2023-01-05T16:07:00;11.10;99.90
9975;DHT22;5028;50.974;4.968;2023-01-05T16:09:33;11.10;99.90
9975;DHT22;5028;50.974;4.968;2023-01-05T16:12:14;11.20;99.90
9975;DHT22;5028;50.974;4.968;2023-01-05T16:14:52;11.10;99.90
9975;DHT22;5028;50.974;4.968;2023-01-05T16:17:31;11.20;99.90
9975;DHT22;5028;50.974;4.968;2023-01-05T16:20:03;11.20;99.90
9975;DHT22;5028;50.974;4.968;2023-01-05T16:22:46;11.20;99.90
9975;DHT22;5028;50.974;4.968;2023-01-05T16:25:22;11.20;99.90
9975;DHT22;5028;50.974;4.968;2023-01-05T16:28:01;11.20;99.90
9975;DHT22;5028;50.974;4.968;2023-01-05T16:30:33;11.20;99.90
9975;DHT22;5028;50.974;4.968;2023-01-05T16:33:27;11.30;99.90
9975;DHT22;5028;50.974;4.968;2023-01-05T16:36:09;11.20;99.90
9975;DHT22;5028;50.974;4.968;2023-01-05T16:38:46;11.20;99.90
9975;DHT22;5028;50.974;4.968;2023-01-05T16:41:22;11.30;99.90
9975;DHT22;5028;50.974;4.968;2023-01-05T16:44:00;11.30;99.90
9975;DHT22;5028;50.974;4.968;2023-01-05T16:46:35;11.30;99.90
9975;DHT22;5028;50.974;4.968;2023-01-05T16:49:35;11.30;99.90
9975;DHT22;5028;50.974;4.968;2023-01-05T16:52:23;11.30;99.90
9975;DHT22;5028;50.974;4.968;2023-01-05T16:55:23;11.30;99.90
9975;DHT22;5028;50.974;4.968;2023-01-05T16:57:56;11.30;99.90
9975;DHT22;5028;50.974;4.968;2023-01-05T17:00:36;11.30;99.90
9975;DHT22;5028;50.974;4.968;2023-01-05T17:03:24;11.30;99.90
9975;DHT22;5028;50.974;4.968;2023-01-05T17:06:00;11.30;99.90
9975;DHT22;5028;50.974;4.968;2023-01-05T17:08:30;11.30;99.90
9975;DHT22;5028;50.974;4.968;2023-01-05T17:11:09;11.30;99.90
9975;DHT22;5028;50.974;4.968;2023-01-05T17:13:41;11.30;99.90
9975;DHT22;5028;50.974;4.968;2023-01-05T17:16:19;11.30;99.90
9975;DHT22;5028;50.974;4.968;2023-01-05T17:18:48;11.30;99.90
9975;DHT22;5028;50.974;4.968;2023-01-05T17:21:34;11.30;99.90
9975;DHT22;5028;50.974;4.968;2023-01-05T17:24:04;11.30;99.90
9975;DHT22;5028;50.974;4.968;2023-01-05T17:26:42;11.30;99.90
9975;DHT22;5028;50.974;4.968;2023-01-05T17:29:17;11.40;99.90
9975;DHT22;5028;50.974;4.968;2023-01-05T17:31:54;11.30;99.90
9975;DHT22;5028;50.974;4.968;2023-01-05T17:34:23;11.30;99.90